createdAt,value
2022-08-17T00:00:33.284Z,87.24
2022-08-17T00:03:26.706Z,87.24
2022-08-17T00:06:21.873Z,87.15
2022-08-17T00:09:07.072Z,87.29
2022-08-17T00:12:40.661Z,88.10
2022-08-17T00:14:56.957Z,88.38
2022-08-17T00:17:42.645Z,87.71
2022-08-17T00:20:30.511Z,86.60
2022-08-17T00:23:19.446Z,87.15
2022-08-17T00:26:04.679Z,86.60
2022-08-17T00:28:50.069Z,86.94
2022-08-17T00:31:37.509Z,87.40
2022-08-17T00:34:22.889Z,87.91
2022-08-17T00:37:08.344Z,87.80
2022-08-17T00:39:53.809Z,88.31
2022-08-17T00:42:40.246Z,88.61
2022-08-17T00:45:26.727Z,88.48
2022-08-17T00:48:29.340Z,88.72
2022-08-17T00:51:23.080Z,88.87
2022-08-17T00:54:25.450Z,90.25
2022-08-17T00:57:24.440Z,89.78
2022-08-17T01:00:19.033Z,89.30
2022-08-17T01:03:15.242Z,89.16
2022-08-17T01:06:03.069Z,89.54
2022-08-17T01:08:49.795Z,89.68
2022-08-17T01:11:44.190Z,89.18
2022-08-17T01:14:29.285Z,90.05
2022-08-17T01:17:14.759Z,91.06
2022-08-17T01:20:00.078Z,90.36
2022-08-17T01:22:45.520Z,90.40
2022-08-17T01:25:31.069Z,90.99
2022-08-17T01:28:33.209Z,90.68
2022-08-17T01:31:22.447Z,90.76
2022-08-17T01:34:10.558Z,91.40
2022-08-17T01:36:55.557Z,91.44
2022-08-17T01:39:49.501Z,91.26
2022-08-17T01:42:48.369Z,91.09
2022-08-17T01:45:39.083Z,90.82
2022-08-17T01:48:29.288Z,91.22
2022-08-17T01:51:15.418Z,91.54
2022-08-17T01:54:05.278Z,90.81
2022-08-17T01:56:52.120Z,91.00
2022-08-17T01:59:37.390Z,91.09
2022-08-17T02:02:31.395Z,90.87
2022-08-17T02:05:16.927Z,90.44
2022-08-17T02:08:03.068Z,91.57
2022-08-17T02:10:51.513Z,92.00
2022-08-17T02:13:36.606Z,91.59
2022-08-17T02:16:22.198Z,92.59
2022-08-17T02:19:10.717Z,93.52
2022-08-17T02:21:55.806Z,93.68
2022-08-17T02:25:00.888Z,92.29
2022-08-17T02:27:46.765Z,91.87
2022-08-17T02:31:00.816Z,91.43
2022-08-17T02:33:42.644Z,91.65
2022-08-17T02:36:29.070Z,91.12
2022-08-17T02:39:14.223Z,90.56
2022-08-17T02:42:02.114Z,91.95
2022-08-17T02:44:47.610Z,92.02
2022-08-17T02:47:33.520Z,92.08
2022-08-17T02:50:22.631Z,91.36
2022-08-17T02:53:08.072Z,90.69
2022-08-17T02:55:53.437Z,90.23
2022-08-17T02:58:38.827Z,90.38
2022-08-17T03:01:24.494Z,90.24
2022-08-17T03:04:09.772Z,91.22
2022-08-17T03:06:55.060Z,91.48
2022-08-17T03:09:40.549Z,90.88
2022-08-17T03:12:29.129Z,91.46
2022-08-17T03:15:19.129Z,92.62
2022-08-17T03:18:04.326Z,93.63
2022-08-17T03:20:49.225Z,93.57
2022-08-17T03:23:34.987Z,92.05
2022-08-17T03:26:20.252Z,91.56
2022-08-17T03:29:05.714Z,91.11
2022-08-17T03:31:51.199Z,91.26
2022-08-17T03:34:36.177Z,91.33
2022-08-17T03:37:20.985Z,91.66
2022-08-17T03:40:08.359Z,90.58
2022-08-17T03:42:53.585Z,91.11
2022-08-17T03:45:39.045Z,91.21
2022-08-17T03:48:24.928Z,91.16
2022-08-17T03:51:17.365Z,91.21
2022-08-17T03:54:02.614Z,91.31
2022-08-17T03:57:02.728Z,92.12
2022-08-17T03:59:48.200Z,92.27
2022-08-17T04:02:33.996Z,92.22
2022-08-17T04:05:19.764Z,92.68
2022-08-17T04:08:05.612Z,93.04
2022-08-17T04:10:51.489Z,93.03
2022-08-17T04:13:36.910Z,92.83
2022-08-17T04:16:25.794Z,93.00
2022-08-17T04:19:11.102Z,93.20
2022-08-17T04:21:57.030Z,93.03
2022-08-17T04:24:42.259Z,93.65
2022-08-17T04:27:27.652Z,93.92
2022-08-17T04:30:13.258Z,94.35
2022-08-17T04:33:11.293Z,95.42
2022-08-17T04:36:00.133Z,94.96
2022-08-17T04:38:45.857Z,94.64
2022-08-17T04:41:30.853Z,94.55
2022-08-17T04:44:36.772Z,94.15
2022-08-17T04:47:21.389Z,93.36
2022-08-17T04:50:07.377Z,93.28
2022-08-17T04:52:52.509Z,93.11
2022-08-17T04:55:38.013Z,93.35
2022-08-17T04:58:23.181Z,93.51
2022-08-17T05:01:09.236Z,94.20
2022-08-17T05:03:57.241Z,93.92
2022-08-17T05:06:43.500Z,93.89
2022-08-17T05:09:28.450Z,94.18
2022-08-17T05:12:15.541Z,94.52
2022-08-17T05:15:00.874Z,94.68
2022-08-17T05:17:46.761Z,93.99
2022-08-17T05:20:33.341Z,94.10
2022-08-17T05:23:20.469Z,94.07
2022-08-17T05:26:06.249Z,94.56
2022-08-17T05:28:58.538Z,94.19
2022-08-17T05:31:45.084Z,94.96
2022-08-17T05:34:30.121Z,94.47
2022-08-17T05:37:15.494Z,94.08
2022-08-17T05:40:01.126Z,94.39
2022-08-17T05:42:47.055Z,94.31
2022-08-17T05:45:54.505Z,93.73
2022-08-17T05:48:42.166Z,93.02
2022-08-17T05:51:56.614Z,92.84
2022-08-17T05:55:20.440Z,92.85
2022-08-17T05:58:17.602Z,93.00
2022-08-17T06:01:16.833Z,92.07
2022-08-17T06:04:39.714Z,91.51
2022-08-17T06:07:49.528Z,92.27
2022-08-17T06:10:50.087Z,87.46
2022-08-17T06:13:41.243Z,84.60
2022-08-17T06:16:34.758Z,82.49
2022-08-17T06:19:31.291Z,81.18
2022-08-17T06:22:20.145Z,81.67
2022-08-17T06:25:14.357Z,81.27
2022-08-17T06:28:07.931Z,79.99
2022-08-17T06:31:02.150Z,77.11
2022-08-17T06:33:47.238Z,76.09
2022-08-17T06:36:48.288Z,76.10
2022-08-17T06:39:39.847Z,76.67
2022-08-17T06:43:02.424Z,76.17
2022-08-17T06:45:50.173Z,75.99
2022-08-17T06:48:40.404Z,74.29
2022-08-17T06:51:35.746Z,73.62
2022-08-17T06:54:30.946Z,72.89
2022-08-17T06:57:27.625Z,72.50
2022-08-17T07:00:16.267Z,72.70
2022-08-17T07:03:13.899Z,71.30
2022-08-17T07:06:05.543Z,71.47
2022-08-17T07:09:03.722Z,70.10
2022-08-17T07:11:48.721Z,69.97
2022-08-17T07:14:48.386Z,69.80
2022-08-17T07:17:46.522Z,70.51
2022-08-17T07:20:43.389Z,68.68
2022-08-17T07:23:45.363Z,66.18
2022-08-17T07:26:30.128Z,66.62
2022-08-17T07:29:18.577Z,65.73
2022-08-17T07:32:04.961Z,64.41
2022-08-17T07:35:08.185Z,62.27
2022-08-17T07:38:26.906Z,61.31
2022-08-17T07:41:11.953Z,61.98
2022-08-17T07:43:57.083Z,61.10
2022-08-17T07:46:53.722Z,60.55
2022-08-17T07:49:44.651Z,61.21
2022-08-17T07:52:51.714Z,62.36
2022-08-17T07:55:37.288Z,61.12
2022-08-17T07:58:23.769Z,60.86
2022-08-17T08:01:14.468Z,60.44
2022-08-17T08:04:00.382Z,59.74
2022-08-17T08:06:51.524Z,60.02
2022-08-17T08:09:44.540Z,64.04
2022-08-17T08:12:36.718Z,60.88
2022-08-17T08:15:25.869Z,61.38
2022-08-17T08:18:53.587Z,60.12
2022-08-17T08:21:47.383Z,58.70
2022-08-17T08:24:50.804Z,61.00
2022-08-17T08:27:53.089Z,59.99
2022-08-17T08:30:45.669Z,60.77
2022-08-17T08:33:33.803Z,59.65
2022-08-17T08:37:15.992Z,60.71
2022-08-17T08:40:35.600Z,56.89
2022-08-17T08:43:44.063Z,55.23
2022-08-17T08:46:35.067Z,56.72
2022-08-17T08:50:03.580Z,58.39
2022-08-17T08:53:03.376Z,55.82
2022-08-17T08:55:58.203Z,56.36
2022-08-17T08:58:49.498Z,54.09
2022-08-17T09:01:59.408Z,50.45
2022-08-17T09:05:10.529Z,48.92
2022-08-17T09:08:04.547Z,46.63
2022-08-17T09:11:01.884Z,44.99
2022-08-17T09:13:55.571Z,43.48
2022-08-17T09:16:45.373Z,43.61
2022-08-17T09:19:38.523Z,43.99
2022-08-17T09:22:27.924Z,42.75
2022-08-17T09:25:23.935Z,41.57
2022-08-17T09:28:19.242Z,41.85
2022-08-17T09:31:11.964Z,40.75
2022-08-17T09:33:59.876Z,41.63
2022-08-17T09:37:11.377Z,41.62
2022-08-17T09:40:17.246Z,42.00
2022-08-17T09:43:25.113Z,43.66
2022-08-17T09:46:19.568Z,44.08
2022-08-17T09:49:25.380Z,44.81
2022-08-17T09:52:23.230Z,44.63
2022-08-17T09:55:09.443Z,46.47
2022-08-17T09:58:09.591Z,45.78
2022-08-17T10:01:14.106Z,44.97
2022-08-17T10:04:27.444Z,45.87
2022-08-17T10:07:31.194Z,47.12
2022-08-17T10:10:25.313Z,46.89
2022-08-17T10:13:19.099Z,45.41
2022-08-17T10:16:14.852Z,46.43
2022-08-17T10:19:10.283Z,46.77
2022-08-17T10:22:01.539Z,48.59
2022-08-17T10:25:21.067Z,47.68
2022-08-17T10:28:19.687Z,49.43
2022-08-17T10:34:48.559Z,46.06
2022-08-17T10:37:57.349Z,46.63
2022-08-17T10:40:58.348Z,47.73
2022-08-17T10:44:38.974Z,48.66
2022-08-17T10:47:19.425Z,49.02
2022-08-17T10:50:45.609Z,49.15
2022-08-17T10:53:36.439Z,49.02
2022-08-17T10:56:38.185Z,50.67
2022-08-17T10:59:35.368Z,47.99
2022-08-17T11:02:38.697Z,47.94
2022-08-17T11:05:43.696Z,49.10
2022-08-17T11:08:44.644Z,51.03
2022-08-17T11:11:58.599Z,49.19
2022-08-17T11:15:17.790Z,55.94
2022-08-17T11:18:40.908Z,56.75
2022-08-17T11:22:13.264Z,51.24
2022-08-17T11:25:12.630Z,56.02
2022-08-17T11:28:09.175Z,53.19
2022-08-17T11:31:38.787Z,53.02
2022-08-17T11:34:30.914Z,51.47
2022-08-17T11:37:21.936Z,55.56
2022-08-17T11:40:19.793Z,51.73
2022-08-17T11:43:31.022Z,50.32
2022-08-17T11:46:41.465Z,49.38
2022-08-17T11:49:41.772Z,49.00
2022-08-17T11:52:47.017Z,48.85
2022-08-17T11:55:37.494Z,48.38
2022-08-17T11:58:34.537Z,48.34
2022-08-17T12:01:22.830Z,50.12
2022-08-17T12:04:20.696Z,48.68
2022-08-17T12:07:20.557Z,54.27
2022-08-17T12:10:05.934Z,53.50
2022-08-17T12:12:53.952Z,54.45
2022-08-17T12:15:43.806Z,54.59
2022-08-17T12:18:32.170Z,55.10
2022-08-17T12:21:33.189Z,56.20
2022-08-17T12:24:31.412Z,57.21
2022-08-17T12:28:04.939Z,58.58
2022-08-17T12:30:29.981Z,59.27
2022-08-17T12:33:25.273Z,59.74
2022-08-17T12:36:15.752Z,59.74
2022-08-17T12:39:14.512Z,59.93
2022-08-17T12:42:02.537Z,59.77
2022-08-17T12:44:50.128Z,59.96
2022-08-17T12:47:37.782Z,59.86
2022-08-17T12:50:28.495Z,60.74
2022-08-17T12:53:23.952Z,61.12
2022-08-17T12:56:13.145Z,61.45
2022-08-17T12:58:58.622Z,62.22
2022-08-17T13:01:44.259Z,63.38
2022-08-17T13:04:31.213Z,63.29
2022-08-17T13:07:33.615Z,62.61
2022-08-17T13:10:33.148Z,61.97
2022-08-17T13:13:26.025Z,62.17
2022-08-17T13:16:14.235Z,62.67
2022-08-17T13:19:41.170Z,66.30
2022-08-17T13:22:28.747Z,64.50
2022-08-17T13:25:16.560Z,65.38
2022-08-17T13:28:03.083Z,65.65
2022-08-17T13:30:48.357Z,64.11
2022-08-17T13:33:43.457Z,64.21
2022-08-17T13:36:30.458Z,65.89
2022-08-17T13:39:22.206Z,66.39
2022-08-17T13:42:31.778Z,69.12
2022-08-17T13:45:36.227Z,67.05
2022-08-17T13:48:30.473Z,66.40
2022-08-17T13:51:24.420Z,66.57
2022-08-17T13:54:19.486Z,67.98
2022-08-17T13:57:21.490Z,67.49
2022-08-17T14:00:16.017Z,65.78
2022-08-17T14:03:04.163Z,65.59
2022-08-17T14:05:51.276Z,66.69
2022-08-17T14:08:36.936Z,67.52
2022-08-17T14:11:23.566Z,69.26
2022-08-17T14:14:09.034Z,68.40
2022-08-17T14:16:55.116Z,68.77
2022-08-17T14:19:40.169Z,65.96
2022-08-17T14:22:32.453Z,65.11
2022-08-17T14:25:25.341Z,63.75
2022-08-17T14:28:10.741Z,62.18
2022-08-17T14:30:55.677Z,58.79
2022-08-17T14:33:41.069Z,57.70
2022-08-17T14:36:26.506Z,56.97
2022-08-17T14:39:13.118Z,54.09
2022-08-17T14:41:58.335Z,54.33
2022-08-17T14:44:43.837Z,53.38
2022-08-17T14:47:29.079Z,53.47
2022-08-17T14:50:15.140Z,52.36
2022-08-17T14:53:06.839Z,52.01
2022-08-17T14:55:52.246Z,51.64
2022-08-17T14:58:37.669Z,51.29
2022-08-17T15:01:25.619Z,50.96
2022-08-17T15:04:10.908Z,51.82
2022-08-17T15:06:56.362Z,51.38
2022-08-17T15:09:41.542Z,50.67
2022-08-17T15:12:32.033Z,50.80
2022-08-17T15:15:18.243Z,51.17
2022-08-17T15:18:03.991Z,48.63
2022-08-17T15:20:49.672Z,48.68
2022-08-17T15:23:35.591Z,49.05
2022-08-17T15:26:26.043Z,47.62
2022-08-17T15:29:11.623Z,47.72
2022-08-17T15:32:00.625Z,48.86
2022-08-17T15:34:45.902Z,48.68
2022-08-17T15:37:31.386Z,48.65
2022-08-17T15:40:16.521Z,49.34
2022-08-17T15:43:10.259Z,48.45
2022-08-17T15:46:06.586Z,53.61
2022-08-17T15:48:54.415Z,53.13
2022-08-17T15:51:39.425Z,51.98
2022-08-17T15:54:24.781Z,51.67
2022-08-17T15:57:16.853Z,59.01
2022-08-17T16:00:03.466Z,50.69
2022-08-17T16:03:45.010Z,51.08
2022-08-17T16:05:53.870Z,55.03
2022-08-17T16:08:40.551Z,53.10
2022-08-17T16:11:25.588Z,50.33
2022-08-17T16:14:10.892Z,52.37
2022-08-17T16:16:59.851Z,50.00
2022-08-17T16:19:45.451Z,50.31
2022-08-17T16:22:44.120Z,56.55
2022-08-17T16:25:52.169Z,54.31
2022-08-17T16:28:36.703Z,53.85
2022-08-17T16:31:22.726Z,58.80
2022-08-17T16:34:17.670Z,56.44
2022-08-17T16:37:03.853Z,52.50
2022-08-17T16:39:49.348Z,50.82
2022-08-17T16:42:36.061Z,52.74
2022-08-17T16:45:27.710Z,54.66
2022-08-17T16:48:12.759Z,50.51
2022-08-17T16:51:03.042Z,53.05
2022-08-17T16:53:57.850Z,55.18
2022-08-17T16:56:44.705Z,55.54
2022-08-17T16:59:30.782Z,53.45
2022-08-17T17:02:33.883Z,57.71
2022-08-17T17:05:46.709Z,54.43
2022-08-17T17:08:51.090Z,56.37
2022-08-17T17:11:50.697Z,57.09
2022-08-17T17:14:40.012Z,54.30
2022-08-17T17:17:34.979Z,54.50
2022-08-17T17:20:26.607Z,54.62
2022-08-17T17:23:26.381Z,56.57
2022-08-17T17:26:29.873Z,58.82
2022-08-17T17:30:08.807Z,60.76
2022-08-17T17:33:14.358Z,61.44
2022-08-17T17:36:05.142Z,62.43
2022-08-17T17:38:54.158Z,62.64
2022-08-17T17:41:51.325Z,63.07
2022-08-17T17:44:48.302Z,63.19
2022-08-17T17:47:36.116Z,63.63
2022-08-17T17:50:32.855Z,64.93
2022-08-17T17:53:41.517Z,65.36
2022-08-17T17:56:43.263Z,66.40
2022-08-17T17:59:44.398Z,66.28
2022-08-17T18:02:52.876Z,66.73
2022-08-17T18:06:19.005Z,66.39
2022-08-17T18:09:39.162Z,67.07
2022-08-17T18:12:50.605Z,66.69
2022-08-17T18:15:56.192Z,66.70
2022-08-17T18:18:48.797Z,66.54
2022-08-17T18:21:40.755Z,67.10
2022-08-17T18:24:32.460Z,67.50
2022-08-17T18:27:22.663Z,68.31
2022-08-17T18:30:14.274Z,68.56
2022-08-17T18:33:29.187Z,68.41
2022-08-17T18:36:28.732Z,69.00
2022-08-17T18:39:19.504Z,69.54
2022-08-17T18:42:24.848Z,69.90
2022-08-17T18:45:10.118Z,69.63
2022-08-17T18:47:56.009Z,70.29
2022-08-17T18:50:41.531Z,71.17
2022-08-17T18:56:31.575Z,72.26
2022-08-17T18:59:43.319Z,73.11
2022-08-17T19:02:44.262Z,73.63
2022-08-17T19:05:40.694Z,74.39
2022-08-17T19:08:28.568Z,75.33
2022-08-17T19:11:25.678Z,76.89
2022-08-17T19:14:13.429Z,76.84
2022-08-17T19:17:16.711Z,76.81
2022-08-17T19:20:10.742Z,77.46
2022-08-17T19:23:10.083Z,77.52
2022-08-17T19:25:59.134Z,77.40
2022-08-17T19:28:58.341Z,78.57
2022-08-17T19:31:45.107Z,79.59
2022-08-17T19:34:34.603Z,78.49
2022-08-17T19:37:49.727Z,78.15
2022-08-17T19:40:55.057Z,79.65
2022-08-17T19:43:57.557Z,80.34
2022-08-17T19:47:30.760Z,79.33
2022-08-17T19:50:31.879Z,80.57
2022-08-17T19:53:36.723Z,80.23
2022-08-17T19:56:49.178Z,80.60
2022-08-17T19:59:56.252Z,80.84
2022-08-17T20:02:57.933Z,80.53
2022-08-17T20:06:11.642Z,81.15
2022-08-17T20:09:09.498Z,81.06
2022-08-17T20:12:01.379Z,81.16
2022-08-17T20:15:02.803Z,81.49
2022-08-17T20:17:48.482Z,82.20
2022-08-17T20:20:43.395Z,81.80
2022-08-17T20:24:03.002Z,82.71
2022-08-17T20:26:59.318Z,83.71
2022-08-17T20:30:06.156Z,83.76
2022-08-17T20:32:54.528Z,84.47
2022-08-17T20:35:59.373Z,83.78
2022-08-17T20:38:52.264Z,83.74
2022-08-17T20:42:23.526Z,83.96
2022-08-17T20:45:20.730Z,84.72
2022-08-17T20:51:46.000Z,86.31
2022-08-17T20:54:53.893Z,87.43
2022-08-17T20:57:39.157Z,87.26
2022-08-17T21:00:27.584Z,87.58
2022-08-17T21:03:50.938Z,88.28
2022-08-17T21:07:15.201Z,88.38
2022-08-17T21:10:17.864Z,88.34
2022-08-17T21:13:28.978Z,88.14
2022-08-17T21:16:36.051Z,88.18
2022-08-17T21:19:44.461Z,88.96
2022-08-17T21:23:10.094Z,89.86
2022-08-17T21:26:08.694Z,91.12
2022-08-17T21:29:30.878Z,91.74
2022-08-17T21:32:20.360Z,91.99
2022-08-17T21:35:26.515Z,92.65
2022-08-17T21:38:13.641Z,92.03
2022-08-17T21:40:58.621Z,91.23
2022-08-17T21:43:48.941Z,91.06
2022-08-17T21:46:38.340Z,91.62
2022-08-17T21:49:26.860Z,92.06
2022-08-17T21:52:15.183Z,91.96
2022-08-17T21:55:01.696Z,91.73
2022-08-17T21:58:13.359Z,91.83
2022-08-17T22:01:20.223Z,91.71
2022-08-17T22:04:17.691Z,90.65
2022-08-17T22:07:06.224Z,92.16
2022-08-17T22:09:51.663Z,93.12
2022-08-17T22:12:37.188Z,93.59
2022-08-17T22:15:22.438Z,92.90
2022-08-17T22:18:21.717Z,92.73
2022-08-17T22:21:07.757Z,91.87
2022-08-17T22:24:06.173Z,92.34
2022-08-17T22:27:10.915Z,93.48
2022-08-17T22:29:58.470Z,94.06
2022-08-17T22:32:46.613Z,93.51
2022-08-17T22:35:33.681Z,93.96
2022-08-17T22:38:18.712Z,92.00
2022-08-17T22:41:19.077Z,91.80
2022-08-17T22:44:16.543Z,91.63
2022-08-17T22:47:23.914Z,93.53
2022-08-17T22:50:22.327Z,95.74
2022-08-17T22:53:18.525Z,93.53
2022-08-17T22:56:04.939Z,94.13
2022-08-17T22:58:58.649Z,95.50
2022-08-17T23:02:05.917Z,94.49
2022-08-17T23:04:55.392Z,94.64
2022-08-17T23:07:43.290Z,94.75
2022-08-17T23:10:34.004Z,95.80
2022-08-17T23:13:19.549Z,94.83
2022-08-17T23:16:04.934Z,95.47
2022-08-17T23:18:51.169Z,95.71
2022-08-17T23:21:37.394Z,95.50
2022-08-17T23:24:25.322Z,96.74
2022-08-17T23:27:11.706Z,96.43
2022-08-17T23:29:57.361Z,95.50
2022-08-17T23:32:44.319Z,93.54
2022-08-17T23:35:38.898Z,92.65
2022-08-17T23:38:27.319Z,93.12
2022-08-17T23:41:19.044Z,96.13
2022-08-17T23:44:05.761Z,94.35
2022-08-17T23:46:52.063Z,93.37
2022-08-17T23:49:38.056Z,92.92
2022-08-17T23:52:23.052Z,93.42
2022-08-17T23:55:09.504Z,95.22
2022-08-17T23:57:54.830Z,97.04
